Time;durP1;ratioP1;P1;durP2;ratioP2;P2;SDS_P1;SDS_P2;PMS_P1;PMS_P2;Temp;Humidity;BMP_temperature;BMP_pressure;BME280_temperature;BME280_humidity;BME280_pressure;Samples;Min_cycle;Max_cycle;Signal;HPM_P1;HPM_P2
2021/03/01 00:01:49;;;;;;;27.10;15.90;;;6.60;80.40;;;;;;5095731;28;20416;-76
2021/03/01 00:04:15;;;;;;;23.10;15.50;;;6.50;81.00;;;;;;5095436;28;20052;-76
2021/03/01 00:06:40;;;;;;;25.37;17.03;;;6.50;81.40;;;;;;5095784;28;20037;-76
2021/03/01 00:09:06;;;;;;;24.93;17.13;;;6.50;82.00;;;;;;5095338;28;20409;-78
2021/03/01 00:11:34;;;;;;;25.70;16.90;;;6.50;81.20;;;;;;5095324;28;20099;-76
2021/03/01 00:14:01;;;;;;;28.67;16.87;;;6.50;81.20;;;;;;5095246;28;20030;-77
2021/03/01 00:16:26;;;;;;;22.03;16.70;;;6.50;81.40;;;;;;5095157;28;20052;-76
2021/03/01 00:18:52;;;;;;;24.17;17.67;;;6.40;81.10;;;;;;5095142;28;20074;-76
2021/03/01 00:21:17;;;;;;;27.57;17.93;;;6.50;81.10;;;;;;5095055;28;20032;-76
2021/03/01 00:23:43;;;;;;;22.00;18.07;;;6.40;80.40;;;;;;5095098;28;20024;-77
2021/03/01 00:26:10;;;;;;;27.73;19.33;;;6.60;79.20;;;;;;5094765;28;20031;-76
2021/03/01 00:28:35;;;;;;;29.80;20.23;;;6.70;78.40;;;;;;5095006;28;20036;-76
2021/03/01 00:31:01;;;;;;;26.97;20.83;;;6.70;77.90;;;;;;5095026;28;20028;-76
2021/03/01 00:33:26;;;;;;;27.30;20.90;;;6.60;77.80;;;;;;5094901;28;20476;-76
2021/03/01 00:35:52;;;;;;;34.93;23.03;;;6.50;77.70;;;;;;5094876;28;20027;-76
2021/03/01 00:38:18;;;;;;;36.47;22.13;;;6.50;77.90;;;;;;5095202;28;20044;-76
2021/03/01 00:40:43;;;;;;;33.93;22.17;;;6.60;77.60;;;;;;5094734;28;20362;-76
2021/03/01 00:43:09;;;;;;;30.03;20.97;;;6.50;77.40;;;;;;5093514;28;20036;-77
2021/03/01 00:45:34;;;;;;;24.33;18.67;;;6.30;78.20;;;;;;5094507;28;20123;-77
2021/03/01 00:48:00;;;;;;;28.80;19.73;;;6.10;79.10;;;;;;5094256;28;20031;-77
2021/03/01 00:50:25;;;;;;;32.73;20.67;;;6.10;78.70;;;;;;5094551;28;20040;-76
2021/03/01 00:52:51;;;;;;;31.03;21.90;;;6.00;78.60;;;;;;5094574;28;20073;-76
2021/03/01 00:55:17;;;;;;;31.73;23.40;;;6.10;78.50;;;;;;5094460;28;20028;-76
2021/03/01 00:57:42;;;;;;;35.67;22.90;;;6.10;78.10;;;;;;5094413;28;20032;-76
2021/03/01 01:00:12;;;;;;;36.37;23.27;;;6.00;78.20;;;;;;5094424;28;20039;-76
2021/03/01 01:02:38;;;;;;;31.00;22.87;;;5.90;78.60;;;;;;5094495;28;20024;-76
2021/03/01 01:05:04;;;;;;;33.50;23.90;;;5.80;78.60;;;;;;5094363;28;20506;-76
2021/03/01 01:07:30;;;;;;;39.37;24.90;;;5.90;78.70;;;;;;5094213;28;20035;-76
2021/03/01 01:09:55;;;;;;;36.20;24.37;;;5.70;78.80;;;;;;5094307;28;20107;-76
2021/03/01 01:12:21;;;;;;;38.27;25.17;;;5.80;79.00;;;;;;5094297;28;20111;-77
2021/03/01 01:14:46;;;;;;;40.67;26.77;;;5.80;79.00;;;;;;5093193;28;20028;-76
2021/03/01 01:17:12;;;;;;;41.63;27.40;;;5.70;79.20;;;;;;5094295;28;20036;-76
2021/03/01 01:19:37;;;;;;;42.83;27.80;;;5.70;80.30;;;;;;5092732;28;20051;-76
2021/03/01 01:22:03;;;;;;;38.17;25.23;;;5.60;80.20;;;;;;5093868;28;20069;-76
2021/03/01 01:24:29;;;;;;;38.13;25.00;;;5.60;80.50;;;;;;5093847;28;20385;-76
2021/03/01 01:26:54;;;;;;;44.17;27.90;;;5.50;80.90;;;;;;5092823;28;20027;-76
2021/03/01 01:29:20;;;;;;;42.53;26.70;;;5.50;80.60;;;;;;5094044;28;20105;-76
2021/03/01 01:31:45;;;;;;;38.27;26.47;;;5.50;81.60;;;;;;5094024;28;20031;-77
2021/03/01 01:34:11;;;;;;;45.10;28.53;;;5.50;81.20;;;;;;5093907;28;20081;-76
2021/03/01 01:36:37;;;;;;;43.20;30.47;;;5.60;80.60;;;;;;5094037;28;20047;-76
2021/03/01 01:39:03;;;;;;;39.00;29.20;;;5.60;80.00;;;;;;5093626;28;20028;-76
2021/03/01 01:41:28;;;;;;;46.73;29.53;;;5.70;79.50;;;;;;5093921;28;20077;-76
2021/03/01 01:43:54;;;;;;;41.73;31.10;;;5.70;79.00;;;;;;5094016;28;20330;-77
2021/03/01 01:46:20;;;;;;;46.00;30.83;;;5.70;78.50;;;;;;5093766;28;20027;-76
2021/03/01 01:48:45;;;;;;;43.57;31.03;;;5.70;78.40;;;;;;5093853;28;20475;-76
2021/03/01 01:51:11;;;;;;;50.30;33.47;;;5.60;78.70;;;;;;5093719;28;20059;-76
2021/03/01 01:53:37;;;;;;;43.70;28.77;;;5.50;78.90;;;;;;5092526;28;20028;-77
2021/03/01 01:56:02;;;;;;;39.03;27.93;;;5.60;78.80;;;;;;5092479;28;20077;-77
2021/03/01 01:58:28;;;;;;;53.97;32.10;;;5.50;78.70;;;;;;5093559;28;20030;-76
2021/03/01 02:00:54;;;;;;;44.23;30.53;;;5.30;79.70;;;;;;5093528;28;20033;-77
2021/03/01 02:03:45;;;;;;;52.67;34.93;;;5.30;79.90;;;;;;5093595;28;20028;-76
2021/03/01 02:06:13;;;;;;;50.00;33.70;;;5.30;80.10;;;;;;5092746;28;20058;-76
2021/03/01 02:08:51;;;;;;;49.87;32.90;;;5.40;79.70;;;;;;5093257;28;20262;-76
2021/03/01 02:11:51;;;;;;;52.27;33.10;;;5.30;80.10;;;;;;5093587;28;20030;-76
2021/03/01 02:14:42;;;;;;;36.23;27.60;;;5.10;81.60;;;;;;5093246;28;20031;-77
2021/03/01 02:17:07;;;;;;;39.85;26.20;;;5.00;81.70;;;;;;5092908;28;20027;-76
2021/03/01 02:19:34;;;;;;;38.70;26.57;;;5.00;81.60;;;;;;5093586;28;20036;-76
2021/03/01 02:22:00;;;;;;;47.10;27.63;;;4.80;81.80;;;;;;5092031;28;20109;-76
2021/03/01 02:24:29;;;;;;;43.33;27.83;;;4.80;82.20;;;;;;5092320;28;20020;-76
2021/03/01 02:26:55;;;;;;;43.30;29.33;;;4.80;82.10;;;;;;5093641;28;20457;-76
2021/03/01 02:29:21;;;;;;;44.57;31.23;;;4.90;81.10;;;;;;5092221;28;20028;-75
2021/03/01 02:31:47;;;;;;;58.13;34.87;;;5.00;80.10;;;;;;5092322;28;20024;-75
2021/03/01 02:34:15;;;;;;;47.30;31.27;;;4.90;79.70;;;;;;5092206;28;20435;-75
2021/03/01 02:37:01;;;;;;;42.87;29.20;;;5.00;79.00;;;;;;5092179;28;20193;-75
2021/03/01 02:39:27;;;;;;;55.53;33.50;;;5.10;78.70;;;;;;5093179;28;20040;-75
2021/03/01 02:41:53;;;;;;;55.33;35.47;;;5.00;78.70;;;;;;5093581;28;20024;-76
2021/03/01 02:44:19;;;;;;;43.67;31.97;;;4.90;79.00;;;;;;5078350;28;20020;-76
2021/03/01 02:46:47;;;;;;;78.13;45.33;;;4.90;79.00;;;;;;5078731;28;20024;-76
2021/03/01 02:49:13;;;;;;;60.80;38.27;;;4.80;79.70;;;;;;5095910;28;20028;-76
2021/03/01 02:51:40;;;;;;;63.03;39.77;;;4.80;79.80;;;;;;5078976;28;20028;-76
2021/03/01 02:54:06;;;;;;;59.53;39.07;;;4.70;80.30;;;;;;5096970;28;20024;-76
2021/03/01 02:56:32;;;;;;;73.53;47.33;;;4.70;80.60;;;;;;5097432;28;20016;-76
2021/03/01 02:58:57;;;;;;;73.93;46.83;;;4.60;81.00;;;;;;5096859;28;20024;-76
2021/03/01 03:01:23;;;;;;;74.57;47.80;;;4.60;81.20;;;;;;5095231;28;20416;-76
2021/03/01 03:03:49;;;;;;;88.23;49.13;;;4.60;81.20;;;;;;5078591;28;20031;-77
2021/03/01 03:06:17;;;;;;;73.03;45.03;;;4.60;81.20;;;;;;5078577;28;20024;-76
2021/03/01 03:08:43;;;;;;;75.70;44.00;;;4.60;81.30;;;;;;5096536;28;20024;-76
2021/03/01 03:11:08;;;;;;;79.17;48.47;;;4.50;81.50;;;;;;5078785;28;20031;-76
2021/03/01 03:13:34;;;;;;;81.97;49.70;;;4.50;82.00;;;;;;5095270;28;20024;-76
2021/03/01 03:15:59;;;;;;;60.80;38.13;;;4.50;82.00;;;;;;5094971;28;20028;-76
2021/03/01 03:18:25;;;;;;;73.67;45.30;;;4.50;81.60;;;;;;5078620;28;20113;-76
2021/03/01 03:20:51;;;;;;;84.57;48.23;;;4.50;82.40;;;;;;5095248;28;20055;-76
2021/03/01 03:23:17;;;;;;;109.50;58.83;;;4.40;83.50;;;;;;5096322;28;20064;-76
2021/03/01 03:25:43;;;;;;;97.17;55.93;;;4.40;83.80;;;;;;5096258;28;20188;-77
2021/03/01 03:28:08;;;;;;;118.70;64.90;;;4.50;83.60;;;;;;5096187;28;20031;-76
2021/03/01 03:30:34;;;;;;;96.77;55.67;;;4.40;83.60;;;;;;5095789;28;20024;-76
2021/03/01 03:33:01;;;;;;;82.23;48.47;;;4.50;83.40;;;;;;5096279;28;20082;-76
2021/03/01 03:35:26;;;;;;;96.03;53.83;;;4.40;83.70;;;;;;5078219;28;20552;-76
2021/03/01 03:38:11;;;;;;;102.67;55.43;;;4.30;83.80;;;;;;5094735;28;20099;-76
2021/03/01 03:40:36;;;;;;;98.83;55.03;;;4.40;84.20;;;;;;5094880;28;20024;-76
2021/03/01 03:43:02;;;;;;;127.73;67.20;;;4.40;84.10;;;;;;5078041;28;20457;-76
2021/03/01 03:45:28;;;;;;;134.53;68.50;;;4.30;84.40;;;;;;5094353;28;20024;-76
2021/03/01 03:47:55;;;;;;;112.80;56.87;;;4.30;84.10;;;;;;5095813;28;20031;-76
2021/03/01 03:50:21;;;;;;;113.53;63.23;;;4.30;83.90;;;;;;5096047;28;20028;-76
2021/03/01 03:52:47;;;;;;;150.00;74.23;;;4.30;83.90;;;;;;5077698;28;20028;-76
2021/03/01 03:55:17;;;;;;;132.67;70.80;;;4.30;84.40;;;;;;5093208;28;20411;-76
2021/03/01 03:57:45;;;;;;;126.85;66.40;;;4.20;84.40;;;;;;5095650;28;20016;-75
2021/03/01 04:00:11;;;;;;;100.43;55.40;;;4.30;84.20;;;;;;5077436;28;20080;-75
2021/03/01 04:02:39;;;;;;;112.13;55.67;;;4.20;84.30;;;;;;5077832;28;20438;-75
2021/03/01 04:05:05;;;;;;;146.80;72.27;;;4.10;84.70;;;;;;5095508;28;20027;-75
2021/03/01 04:07:30;;;;;;;169.33;78.43;;;4.10;85.30;;;;;;5094279;28;20349;-75
2021/03/01 04:09:56;;;;;;;144.77;69.90;;;4.10;86.10;;;;;;5093873;28;20085;-76
2021/03/01 04:12:21;;;;;;;157.60;75.53;;;4.20;85.90;;;;;;5077290;28;20114;-76
2021/03/01 04:14:48;;;;;;;136.83;67.17;;;4.20;86.30;;;;;;5094073;28;20024;-76
2021/03/01 04:17:14;;;;;;;137.37;68.17;;;4.10;86.50;;;;;;5077512;28;20448;-76
2021/03/01 04:19:40;;;;;;;116.87;60.63;;;4.20;86.90;;;;;;5077089;28;20032;-77
2021/03/01 04:22:06;;;;;;;115.77;58.67;;;4.10;87.10;;;;;;5076811;28;20047;-77
2021/03/01 04:24:32;;;;;;;95.93;52.60;;;4.10;87.40;;;;;;5077016;28;20108;-77
2021/03/01 04:26:58;;;;;;;103.23;54.80;;;3.90;88.20;;;;;;5094049;28;20028;-77
2021/03/01 04:29:24;;;;;;;113.23;58.47;;;4.00;88.30;;;;;;5076675;28;20024;-76
2021/03/01 04:31:50;;;;;;;129.70;66.73;;;4.00;88.30;;;;;;5076640;28;20392;-76
2021/03/01 04:34:16;;;;;;;107.73;57.70;;;4.00;88.20;;;;;;5093709;28;20035;-76
2021/03/01 04:36:42;;;;;;;123.50;60.73;;;4.10;87.90;;;;;;5093453;28;20035;-76
2021/03/01 04:39:07;;;;;;;119.90;60.57;;;4.10;87.50;;;;;;5093549;28;20040;-76
2021/03/01 04:41:36;;;;;;;127.30;64.40;;;4.00;88.60;;;;;;5094763;28;20043;-76
2021/03/01 04:44:03;;;;;;;102.27;54.97;;;4.00;89.00;;;;;;5093316;28;20032;-76
2021/03/01 04:46:29;;;;;;;98.30;53.63;;;3.90;88.50;;;;;;5093568;28;20016;-76
2021/03/01 04:48:54;;;;;;;111.40;57.63;;;3.80;89.60;;;;;;5094410;28;20081;-77
2021/03/01 04:51:22;;;;;;;104.47;56.07;;;3.90;89.30;;;;;;5076988;28;20115;-77
2021/03/01 04:53:48;;;;;;;113.70;58.03;;;3.90;89.20;;;;;;5093319;28;20035;-77
2021/03/01 04:56:13;;;;;;;103.57;57.37;;;3.90;89.70;;;;;;5076293;28;20017;-77
2021/03/01 04:58:39;;;;;;;125.10;65.37;;;3.80;90.30;;;;;;5094451;28;20024;-77
2021/03/01 05:01:06;;;;;;;111.63;59.63;;;3.80;89.80;;;;;;5093361;28;20111;-77
2021/03/01 05:03:32;;;;;;;118.47;62.67;;;3.90;89.50;;;;;;5093242;28;20035;-77
2021/03/01 05:05:59;;;;;;;138.40;69.17;;;3.80;90.20;;;;;;5094008;28;20399;-77
2021/03/01 05:08:24;;;;;;;144.63;69.77;;;3.90;90.20;;;;;;5094289;28;20016;-78
2021/03/01 05:10:50;;;;;;;141.67;70.43;;;4.10;90.20;;;;;;5093186;28;20103;-77
2021/03/01 05:13:16;;;;;;;163.40;75.40;;;4.20;90.00;;;;;;5076024;28;20024;-77
2021/03/01 05:15:41;;;;;;;176.33;76.47;;;4.30;89.90;;;;;;5094131;28;20042;-78
2021/03/01 05:18:07;;;;;;;201.93;85.40;;;4.20;90.20;;;;;;5094648;28;20107;-77
2021/03/01 05:20:32;;;;;;;234.27;91.17;;;4.30;89.80;;;;;;5093647;28;20481;-78
2021/03/01 05:22:58;;;;;;;224.03;88.73;;;4.50;89.40;;;;;;5094366;28;20527;-78
2021/03/01 05:25:24;;;;;;;235.30;90.77;;;4.60;89.40;;;;;;5093923;28;20028;-78
2021/03/01 05:27:49;;;;;;;262.70;94.73;;;4.70;89.00;;;;;;5094027;28;20384;-78
2021/03/01 05:30:15;;;;;;;256.30;95.30;;;4.50;89.60;;;;;;5076090;28;20385;-78
2021/03/01 05:32:41;;;;;;;281.27;98.97;;;4.50;89.50;;;;;;5094190;28;20078;-78
2021/03/01 05:35:07;;;;;;;285.43;98.10;;;4.70;89.50;;;;;;5092528;28;20023;-78
2021/03/01 05:37:33;;;;;;;263.20;93.07;;;4.70;89.30;;;;;;5093772;28;20030;-79
2021/03/01 05:39:58;;;;;;;271.47;97.50;;;4.70;89.20;;;;;;5093701;28;20107;-79
2021/03/01 05:42:25;;;;;;;295.47;95.97;;;4.70;89.30;;;;;;5093222;28;20032;-80
2021/03/01 05:44:51;;;;;;;328.40;102.70;;;4.70;89.70;;;;;;5093199;28;20036;-78
2021/03/01 05:47:17;;;;;;;312.13;103.83;;;4.70;89.30;;;;;;5093496;28;20114;-78
2021/03/01 05:49:43;;;;;;;343.60;109.77;;;4.70;89.30;;;;;;5092580;28;20036;-78
2021/03/01 05:52:09;;;;;;;374.90;110.17;;;4.70;89.00;;;;;;5093829;28;20024;-78
2021/03/01 05:54:35;;;;;;;324.20;104.17;;;4.80;88.50;;;;;;5092663;28;20038;-78
2021/03/01 05:57:05;;;;;;;364.03;108.97;;;4.90;88.30;;;;;;5092871;28;20020;-79
2021/03/01 05:59:31;;;;;;;371.57;111.37;;;4.80;87.80;;;;;;5093590;28;20028;-78
2021/03/01 06:01:56;;;;;;;314.30;100.27;;;4.90;87.90;;;;;;5092488;28;20099;-78
2021/03/01 06:04:22;;;;;;;313.43;98.67;;;4.80;88.30;;;;;;5075468;28;20081;-77
2021/03/01 06:06:48;;;;;;;338.60;105.40;;;4.80;88.60;;;;;;5092213;28;20043;-78
2021/03/01 06:09:13;;;;;;;339.57;107.73;;;4.90;88.70;;;;;;5093678;28;20031;-78
2021/03/01 06:11:39;;;;;;;315.03;101.47;;;4.90;88.10;;;;;;5093206;28;20541;-78
2021/03/01 06:14:05;;;;;;;340.23;105.33;;;5.10;87.50;;;;;;5093415;28;20468;-78
2021/03/01 06:16:31;;;;;;;333.00;103.00;;;5.20;87.30;;;;;;5093399;28;20107;-78
2021/03/01 06:18:56;;;;;;;300.67;99.27;;;5.20;86.90;;;;;;5095856;28;20464;-78
2021/03/01 06:21:22;;;;;;;287.47;97.77;;;5.10;87.10;;;;;;5096330;28;20035;-78
2021/03/01 06:23:48;;;;;;;304.90;100.07;;;5.20;87.20;;;;;;5097748;28;20425;-78
2021/03/01 06:26:30;;;;;;;302.47;101.63;;;5.20;86.80;;;;;;5097521;28;20020;-77
2021/03/01 06:29:06;;;;;;;297.67;101.33;;;5.30;86.90;;;;;;5097424;28;20115;-78
2021/03/01 06:31:45;;;;;;;266.40;97.20;;;5.30;86.40;;;;;;5097356;28;20135;-78
2021/03/01 06:34:26;;;;;;;291.47;100.07;;;5.20;86.30;;;;;;5097288;28;20071;-77
2021/03/01 06:37:12;;;;;;;321.63;109.70;;;5.20;86.90;;;;;;5097316;28;20029;-78
2021/03/01 06:39:41;;;;;;;308.27;105.60;;;5.10;86.70;;;;;;5097490;28;20024;-78
2021/03/01 06:42:16;;;;;;;258.10;98.70;;;5.10;86.50;;;;;;5097317;28;20040;-78
2021/03/01 06:44:46;;;;;;;247.73;95.40;;;4.90;87.40;;;;;;5097005;28;20205;-78
2021/03/01 06:47:12;;;;;;;248.30;93.83;;;4.70;88.20;;;;;;5097461;28;20028;-77
2021/03/01 06:49:39;;;;;;;234.97;92.80;;;4.70;88.70;;;;;;5097019;28;20484;-78
2021/03/01 06:52:04;;;;;;;240.40;94.00;;;4.70;88.70;;;;;;5095789;28;20020;-79
2021/03/01 06:54:30;;;;;;;242.67;95.63;;;4.70;88.90;;;;;;5097233;28;20073;-78
2021/03/01 06:56:56;;;;;;;234.40;92.53;;;4.80;88.50;;;;;;5078691;28;20028;-78
2021/03/01 06:59:23;;;;;;;222.10;92.53;;;4.70;88.70;;;;;;5095586;28;20036;-78
2021/03/01 07:01:52;;;;;;;183.50;81.10;;;4.80;88.90;;;;;;5096664;28;20403;-78
2021/03/01 07:04:28;;;;;;;171.43;72.63;;;4.70;88.80;;;;;;5096797;28;20047;-78
2021/03/01 07:06:55;;;;;;;159.47;71.17;;;4.70;88.90;;;;;;5097082;28;20032;-78
2021/03/01 07:09:22;;;;;;;177.50;75.03;;;4.60;88.90;;;;;;5096725;28;20031;-78
2021/03/01 07:11:48;;;;;;;171.77;73.07;;;4.70;89.30;;;;;;5096631;28;20031;-78
2021/03/01 07:14:15;;;;;;;157.53;70.23;;;4.80;88.50;;;;;;5096678;28;20024;-79
2021/03/01 07:16:48;;;;;;;144.13;64.33;;;4.90;88.00;;;;;;5096410;28;20081;-79
2021/03/01 07:19:17;;;;;;;141.40;65.10;;;5.00;87.60;;;;;;5094736;28;20058;-78
2021/03/01 07:21:53;;;;;;;151.47;69.70;;;5.00;87.50;;;;;;5096699;28;20039;-79
2021/03/01 07:24:19;;;;;;;135.90;62.83;;;5.00;87.20;;;;;;5095505;28;20024;-79
2021/03/01 07:26:45;;;;;;;150.07;67.60;;;5.00;86.90;;;;;;5096667;28;20130;-79
2021/03/01 07:29:19;;;;;;;150.30;66.17;;;5.00;87.00;;;;;;5094843;28;20484;-79
2021/03/01 07:32:04;;;;;;;140.20;62.93;;;5.00;87.30;;;;;;5096257;28;20035;-79
2021/03/01 07:34:30;;;;;;;130.53;61.93;;;5.00;87.20;;;;;;5093487;28;20020;-79
2021/03/01 07:36:56;;;;;;;131.07;60.77;;;4.90;87.40;;;;;;5094024;28;20454;-78
2021/03/01 07:39:23;;;;;;;123.43;57.80;;;5.00;87.50;;;;;;5094646;28;20031;-80
2021/03/01 07:41:49;;;;;;;124.30;57.60;;;5.10;87.60;;;;;;5096441;28;20415;-78
2021/03/01 07:44:15;;;;;;;136.50;60.53;;;5.20;86.80;;;;;;5094504;28;20038;-79
2021/03/01 07:46:42;;;;;;;124.80;58.40;;;5.20;86.80;;;;;;5093372;28;20020;-78
2021/03/01 07:49:14;;;;;;;115.00;57.27;;;5.10;86.20;;;;;;5094262;28;20047;-79
2021/03/01 07:51:45;;;;;;;114.97;54.03;;;5.10;86.60;;;;;;5095395;28;20032;-79
2021/03/01 07:54:14;;;;;;;;;;;5.10;86.70;;;;;;5096186;28;20053;-78
2021/03/01 07:56:39;;;;;;;109.13;52.60;;;5.10;86.90;;;;;;5095731;28;19904;-80
2021/03/01 07:59:06;;;;;;;114.60;53.67;;;5.00;87.30;;;;;;5095659;28;20039;-79
2021/03/01 08:01:32;;;;;;;122.60;57.87;;;4.90;87.30;;;;;;5095583;28;20035;-79
2021/03/01 08:03:58;;;;;;;114.53;56.70;;;5.00;87.10;;;;;;5095632;28;20024;-79
2021/03/01 08:06:23;;;;;;;116.37;55.67;;;5.10;86.70;;;;;;5095696;28;20483;-79
2021/03/01 08:08:50;;;;;;;111.77;54.87;;;5.30;85.80;;;;;;5094272;28;20495;-79
2021/03/01 08:11:42;;;;;;;110.27;53.87;;;5.40;85.10;;;;;;5095424;28;20024;-79
2021/03/01 08:15:07;;;;;;;103.73;52.53;;;5.40;85.20;;;;;;5092270;28;20038;-79
2021/03/01 08:17:33;;;;;;;106.60;52.03;;;5.40;84.80;;;;;;5094056;28;20070;-79
2021/03/01 08:20:11;;;;;;;109.03;53.47;;;5.60;84.40;;;;;;5095461;28;20124;-79
2021/03/01 08:23:11;;;;;;;102.43;54.47;;;5.80;84.10;;;;;;5095321;28;20473;-79
2021/03/01 08:25:49;;;;;;;101.57;51.37;;;5.80;83.50;;;;;;5093769;28;20070;-79
2021/03/01 08:28:17;;;;;;;103.40;50.53;;;5.70;83.80;;;;;;5095129;28;20477;-79
2021/03/01 08:30:47;;;;;;;108.10;51.97;;;5.70;84.20;;;;;;5095112;28;20032;-79
2021/03/01 08:33:13;;;;;;;103.27;50.80;;;5.90;84.20;;;;;;5094836;28;20107;-79
2021/03/01 08:35:46;;;;;;;95.83;51.03;;;6.00;83.50;;;;;;5094910;28;20036;-79
2021/03/01 08:38:13;;;;;;;100.77;51.00;;;6.20;82.60;;;;;;5095428;28;20154;-79
2021/03/01 08:40:56;;;;;;;95.47;49.97;;;6.20;81.90;;;;;;5093792;28;20057;-79
2021/03/01 08:43:31;;;;;;;95.23;51.33;;;6.20;82.10;;;;;;5094768;28;20028;-79
2021/03/01 08:45:57;;;;;;;95.10;50.13;;;6.30;82.40;;;;;;5094716;28;20111;-79
2021/03/01 08:48:22;;;;;;;90.77;48.53;;;6.50;81.30;;;;;;5093496;28;20059;-79
2021/03/01 08:50:50;;;;;;;96.23;48.37;;;6.60;80.60;;;;;;5095761;28;20043;-79
2021/03/01 08:53:25;;;;;;;83.47;46.57;;;6.60;79.80;;;;;;5094755;28;20020;-79
2021/03/01 08:55:51;;;;;;;80.80;44.80;;;6.60;80.50;;;;;;5094523;28;20058;-79
2021/03/01 08:58:18;;;;;;;86.00;46.83;;;6.50;80.00;;;;;;5094389;28;20027;-80
2021/03/01 09:00:53;;;;;;;86.83;48.27;;;6.70;79.80;;;;;;5094311;28;20492;-79
2021/03/01 09:03:25;;;;;;;95.63;47.97;;;6.70;79.50;;;;;;5094394;28;20024;-79
2021/03/01 09:05:55;;;;;;;85.03;45.07;;;6.60;79.80;;;;;;5094606;28;20032;-79
2021/03/01 09:08:32;;;;;;;91.77;45.63;;;6.50;79.90;;;;;;5094305;28;20474;-79
2021/03/01 09:11:00;;;;;;;89.57;44.83;;;6.50;80.00;;;;;;5094353;28;20028;-79
2021/03/01 09:13:26;;;;;;;81.73;44.57;;;6.60;80.60;;;;;;5094404;28;20472;-79
2021/03/01 09:15:51;;;;;;;87.17;44.20;;;6.50;80.20;;;;;;5094157;28;20032;-79
2021/03/01 09:18:17;;;;;;;79.97;42.73;;;6.60;80.00;;;;;;5094015;28;20031;-79
2021/03/01 09:20:45;;;;;;;86.37;45.63;;;6.70;79.80;;;;;;5093668;28;20113;-79
2021/03/01 09:23:11;;;;;;;83.63;44.47;;;6.90;79.50;;;;;;5094183;28;20177;-79
2021/03/01 09:25:37;;;;;;;86.20;45.87;;;6.80;79.60;;;;;;5094092;28;20024;-79
2021/03/01 09:28:04;;;;;;;85.90;45.27;;;6.70;79.40;;;;;;5094090;28;20468;-79
2021/03/01 09:30:29;;;;;;;86.50;46.10;;;6.80;79.30;;;;;;5094062;28;20031;-79
2021/03/01 09:32:56;;;;;;;90.50;46.87;;;6.80;79.40;;;;;;5092853;28;20020;-80
2021/03/01 09:35:23;;;;;;;88.80;44.37;;;6.90;79.00;;;;;;5092740;28;20435;-79
2021/03/01 09:37:48;;;;;;;75.43;41.77;;;6.80;79.10;;;;;;5093956;28;20040;-79
2021/03/01 09:40:21;;;;;;;85.10;43.40;;;6.80;78.80;;;;;;5075968;28;20028;-79
2021/03/01 09:42:49;;;;;;;83.23;43.67;;;6.70;78.70;;;;;;5094149;28;20027;-79
2021/03/01 09:45:15;;;;;;;86.80;43.97;;;6.70;79.50;;;;;;5092886;28;20071;-79
2021/03/01 09:47:41;;;;;;;89.73;44.67;;;6.60;79.20;;;;;;5092925;28;20020;-79
2021/03/01 09:50:07;;;;;;;92.93;47.30;;;6.50;79.80;;;;;;5092469;28;20043;-79
2021/03/01 09:52:33;;;;;;;96.10;47.20;;;6.60;80.10;;;;;;5078286;28;20036;-79
2021/03/01 09:54:58;;;;;;;91.67;46.57;;;6.80;79.60;;;;;;5096967;28;20024;-79
2021/03/01 09:57:28;;;;;;;93.10;45.50;;;6.80;79.60;;;;;;5096967;28;20090;-79
2021/03/01 09:59:54;;;;;;;90.57;46.13;;;6.80;78.90;;;;;;5098297;28;20036;-79
2021/03/01 10:02:20;;;;;;;93.17;46.33;;;6.80;78.90;;;;;;5097856;28;20516;-79
2021/03/01 10:04:46;;;;;;;91.03;47.00;;;7.00;78.80;;;;;;5098349;28;20035;-79
2021/03/01 10:07:15;;;;;;;96.97;47.60;;;7.30;77.80;;;;;;5079781;28;20027;-79
2021/03/01 10:09:40;;;;;;;90.67;46.33;;;7.50;77.50;;;;;;5095614;28;20077;-78
2021/03/01 10:12:06;;;;;;;93.23;47.27;;;7.50;76.50;;;;;;5096290;28;20028;-78
2021/03/01 10:14:32;;;;;;;92.97;47.67;;;7.70;76.70;;;;;;5096233;28;20434;-79
2021/03/01 10:16:57;;;;;;;89.63;46.93;;;7.80;75.80;;;;;;5079425;28;20027;-79
2021/03/01 10:19:23;;;;;;;90.20;46.43;;;7.80;75.20;;;;;;5078390;28;20032;-80
2021/03/01 10:21:49;;;;;;;89.67;47.53;;;8.00;74.70;;;;;;5095821;28;20064;-80
2021/03/01 10:24:16;;;;;;;100.83;48.73;;;8.10;74.30;;;;;;5095480;28;20024;-79
2021/03/01 10:26:55;;;;;;;86.70;47.70;;;8.20;73.80;;;;;;5097539;28;20032;-78
2021/03/01 10:29:35;;;;;;;83.63;45.07;;;8.30;73.30;;;;;;5098232;28;20152;-79
2021/03/01 10:32:01;;;;;;;84.83;45.03;;;8.50;72.20;;;;;;5094979;28;20024;-79
2021/03/01 10:34:35;;;;;;;84.32;43.35;;;8.60;71.70;;;;;;5079184;28;20107;-78
2021/03/01 10:37:02;;;;;;;85.38;45.00;;;8.90;70.60;;;;;;5097246;28;20027;-78
2021/03/01 10:39:49;;;;;;;88.80;45.92;;;8.80;71.10;;;;;;5096870;28;20028;-79
2021/03/01 10:42:16;;;;;;;88.60;48.72;;;9.00;71.30;;;;;;5096155;28;20078;-79
2021/03/01 10:44:43;;;;;;;87.57;48.28;;;9.10;71.20;;;;;;5097003;28;20024;-79
2021/03/01 10:47:18;;;;;;;83.25;47.17;;;9.20;70.10;;;;;;5097093;28;20016;-79
2021/03/01 10:49:45;;;;;;;86.35;47.25;;;9.00;69.30;;;;;;5096456;28;20036;-79
2021/03/01 10:52:11;;;;;;;80.93;46.28;;;9.10;70.10;;;;;;5096771;28;20020;-80
2021/03/01 10:54:37;;;;;;;80.82;47.33;;;9.30;69.80;;;;;;5096828;28;20069;-79
2021/03/01 10:57:02;;;;;;;89.25;48.75;;;9.40;69.20;;;;;;5097112;28;20457;-79
2021/03/01 10:59:28;;;;;;;99.40;48.78;;;9.60;69.40;;;;;;5096595;28;20032;-79
2021/03/01 11:01:53;;;;;;;76.95;45.05;;;9.70;69.10;;;;;;5096561;28;20385;-80
2021/03/01 11:04:19;;;;;;;82.82;46.47;;;10.00;68.00;;;;;;5095963;28;20024;-80
2021/03/01 11:06:48;;;;;;;80.93;45.63;;;9.90;67.70;;;;;;5096198;28;20027;-80
2021/03/01 11:09:14;;;;;;;85.90;47.60;;;9.90;67.00;;;;;;5095063;28;20039;-79
2021/03/01 11:11:40;;;;;;;87.90;48.88;;;10.10;66.60;;;;;;5096075;28;20448;-80
2021/03/01 11:14:06;;;;;;;86.72;45.35;;;10.10;66.40;;;;;;5095361;28;20028;-79
2021/03/01 11:16:32;;;;;;;81.88;47.65;;;10.30;66.50;;;;;;5094986;28;20021;-79
2021/03/01 11:18:58;;;;;;;85.68;48.47;;;10.20;66.20;;;;;;5095943;28;20039;-79
2021/03/01 11:21:23;;;;;;;85.63;46.72;;;9.90;66.20;;;;;;5094832;28;20032;-79
2021/03/01 11:23:49;;;;;;;87.60;46.85;;;9.80;66.80;;;;;;5096032;28;20102;-78
2021/03/01 11:26:14;;;;;;;85.07;46.28;;;9.60;67.20;;;;;;5096141;28;20035;-79
2021/03/01 11:28:41;;;;;;;91.55;46.88;;;9.70;68.00;;;;;;5096097;28;20040;-79
2021/03/01 11:31:06;;;;;;;83.15;45.35;;;9.70;68.40;;;;;;5095830;28;20032;-79
2021/03/01 11:33:32;;;;;;;84.63;45.13;;;9.60;67.90;;;;;;5096097;28;20024;-79
2021/03/01 11:35:57;;;;;;;81.22;45.28;;;9.40;68.50;;;;;;5095710;28;20028;-79
2021/03/01 11:38:24;;;;;;;85.53;46.25;;;9.30;69.80;;;;;;5095967;28;20024;-79
2021/03/01 11:40:50;;;;;;;88.07;47.88;;;9.60;69.60;;;;;;5096295;28;20118;-79
2021/03/01 11:43:16;;;;;;;82.40;45.50;;;9.70;70.60;;;;;;5095747;28;20066;-79
2021/03/01 11:45:42;;;;;;;80.47;45.80;;;9.70;69.10;;;;;;5095850;28;20047;-78
2021/03/01 11:48:11;;;;;;;78.55;41.80;;;9.80;69.30;;;;;;5095940;28;20024;-78
2021/03/01 11:50:37;;;;;;;76.20;43.42;;;9.90;68.10;;;;;;5095792;28;20071;-79
2021/03/01 11:53:02;;;;;;;82.93;42.85;;;9.90;68.40;;;;;;5095748;28;20087;-79
2021/03/01 11:55:28;;;;;;;75.88;44.90;;;9.80;68.20;;;;;;5095906;28;20461;-80
2021/03/01 11:57:53;;;;;;;74.97;44.17;;;9.90;68.80;;;;;;5096299;28;20024;-78
2021/03/01 12:00:19;;;;;;;79.72;46.42;;;10.10;68.30;;;;;;5095630;28;20031;-78
2021/03/01 12:02:45;;;;;;;80.07;45.25;;;9.70;68.50;;;;;;5095740;28;20115;-79
2021/03/01 12:05:11;;;;;;;81.50;46.72;;;9.90;69.20;;;;;;5090180;28;20492;-79
2021/03/01 12:07:37;;;;;;;82.55;48.08;;;9.90;69.00;;;;;;5086792;28;20672;-78
2021/03/01 12:10:04;;;;;;;83.85;48.60;;;9.70;69.70;;;;;;5089656;28;20043;-78
2021/03/01 12:12:29;;;;;;;80.90;48.35;;;9.60;70.00;;;;;;5087115;28;21368;-80
2021/03/01 12:14:55;;;;;;;81.53;45.97;;;9.20;70.80;;;;;;5090493;28;20031;-77
2021/03/01 12:17:21;;;;;;;82.57;45.75;;;9.40;71.10;;;;;;5092198;28;20034;-79
2021/03/01 12:19:46;;;;;;;73.57;44.47;;;9.60;70.00;;;;;;5094831;28;20073;-79
2021/03/01 12:22:12;;;;;;;75.30;44.80;;;9.60;69.20;;;;;;5090445;28;20400;-80
2021/03/01 12:24:37;;;;;;;76.15;44.22;;;9.70;68.30;;;;;;5092780;28;20032;-79
2021/03/01 12:27:03;;;;;;;72.03;43.53;;;9.70;68.40;;;;;;5094732;28;20059;-79
2021/03/01 12:29:28;;;;;;;72.82;42.53;;;9.90;67.80;;;;;;5094583;28;20430;-79
2021/03/01 12:31:54;;;;;;;72.95;42.80;;;10.10;66.10;;;;;;5094519;28;20032;-79
2021/03/01 12:34:20;;;;;;;81.25;41.03;;;10.20;64.80;;;;;;5094430;28;20066;-78
2021/03/01 12:36:45;;;;;;;73.10;43.58;;;10.30;64.30;;;;;;5071515;28;20081;-78